sensor_id;sensor_type;location;lat;lon;timestamp;P1;durP1;ratioP1;P2;durP2;ratioP2
53927;SDS011;39837;47.630;18.822;2023-12-14T00:01:30;96.95;;;18.00;;
53927;SDS011;39837;47.630;18.822;2023-12-14T00:04:14;162.73;;;20.58;;
53927;SDS011;39837;47.630;18.822;2023-12-14T00:06:58;146.57;;;19.42;;
53927;SDS011;39837;47.630;18.822;2023-12-14T00:09:42;242.90;;;23.98;;
53927;SDS011;39837;47.630;18.822;2023-12-14T00:12:26;158.30;;;21.80;;
53927;SDS011;39837;47.630;18.822;2023-12-14T00:15:10;138.07;;;21.27;;
53927;SDS011;39837;47.630;18.822;2023-12-14T00:17:54;181.75;;;19.13;;
53927;SDS011;39837;47.630;18.822;2023-12-14T00:20:38;157.88;;;19.52;;
53927;SDS011;39837;47.630;18.822;2023-12-14T00:23:25;183.48;;;18.20;;
53927;SDS011;39837;47.630;18.822;2023-12-14T00:26:09;175.52;;;20.38;;
53927;SDS011;39837;47.630;18.822;2023-12-14T00:28:53;151.30;;;20.80;;
53927;SDS011;39837;47.630;18.822;2023-12-14T00:31:37;160.25;;;19.42;;
53927;SDS011;39837;47.630;18.822;2023-12-14T00:34:21;178.05;;;19.88;;
53927;SDS011;39837;47.630;18.822;2023-12-14T00:37:04;149.68;;;17.30;;
53927;SDS011;39837;47.630;18.822;2023-12-14T00:39:48;147.82;;;21.10;;
53927;SDS011;39837;47.630;18.822;2023-12-14T00:42:33;115.40;;;19.08;;
53927;SDS011;39837;47.630;18.822;2023-12-14T00:45:17;146.20;;;20.58;;
53927;SDS011;39837;47.630;18.822;2023-12-14T00:48:01;150.48;;;18.33;;
53927;SDS011;39837;47.630;18.822;2023-12-14T00:50:44;127.75;;;19.40;;
53927;SDS011;39837;47.630;18.822;2023-12-14T00:53:28;125.53;;;17.35;;
53927;SDS011;39837;47.630;18.822;2023-12-14T00:56:12;114.78;;;17.80;;
53927;SDS011;39837;47.630;18.822;2023-12-14T00:58:56;88.18;;;18.80;;
53927;SDS011;39837;47.630;18.822;2023-12-14T01:01:40;172.52;;;19.30;;
53927;SDS011;39837;47.630;18.822;2023-12-14T01:04:24;91.53;;;17.58;;
53927;SDS011;39837;47.630;18.822;2023-12-14T01:07:08;144.38;;;19.58;;
53927;SDS011;39837;47.630;18.822;2023-12-14T01:09:52;135.57;;;20.98;;
53927;SDS011;39837;47.630;18.822;2023-12-14T01:12:36;163.43;;;21.58;;
53927;SDS011;39837;47.630;18.822;2023-12-14T01:15:20;150.35;;;22.13;;
53927;SDS011;39837;47.630;18.822;2023-12-14T01:18:04;148.20;;;20.42;;
53927;SDS011;39837;47.630;18.822;2023-12-14T01:20:48;230.98;;;22.17;;
53927;SDS011;39837;47.630;18.822;2023-12-14T01:23:32;115.07;;;19.50;;
53927;SDS011;39837;47.630;18.822;2023-12-14T01:26:16;151.82;;;20.00;;
53927;SDS011;39837;47.630;18.822;2023-12-14T01:29:02;121.78;;;18.85;;
53927;SDS011;39837;47.630;18.822;2023-12-14T01:31:46;92.82;;;18.77;;
53927;SDS011;39837;47.630;18.822;2023-12-14T01:34:30;120.75;;;18.90;;
53927;SDS011;39837;47.630;18.822;2023-12-14T01:37:14;96.97;;;19.75;;
53927;SDS011;39837;47.630;18.822;2023-12-14T01:39:58;107.35;;;20.35;;
53927;SDS011;39837;47.630;18.822;2023-12-14T01:42:42;121.50;;;19.83;;
53927;SDS011;39837;47.630;18.822;2023-12-14T01:45:26;167.60;;;19.65;;
53927;SDS011;39837;47.630;18.822;2023-12-14T01:48:10;230.32;;;19.40;;
53927;SDS011;39837;47.630;18.822;2023-12-14T01:50:55;160.45;;;22.10;;
53927;SDS011;39837;47.630;18.822;2023-12-14T01:53:39;160.95;;;19.02;;
53927;SDS011;39837;47.630;18.822;2023-12-14T01:56:24;190.73;;;19.85;;
53927;SDS011;39837;47.630;18.822;2023-12-14T01:59:08;214.85;;;23.77;;
53927;SDS011;39837;47.630;18.822;2023-12-14T02:01:52;200.50;;;23.17;;
53927;SDS011;39837;47.630;18.822;2023-12-14T02:04:37;166.30;;;19.38;;
53927;SDS011;39837;47.630;18.822;2023-12-14T02:07:21;67.55;;;17.92;;
53927;SDS011;39837;47.630;18.822;2023-12-14T02:10:05;225.75;;;21.90;;
53927;SDS011;39837;47.630;18.822;2023-12-14T02:12:49;172.05;;;19.90;;
53927;SDS011;39837;47.630;18.822;2023-12-14T02:15:33;113.15;;;19.58;;
53927;SDS011;39837;47.630;18.822;2023-12-14T02:18:17;141.90;;;21.98;;
53927;SDS011;39837;47.630;18.822;2023-12-14T02:21:04;126.57;;;21.35;;
53927;SDS011;39837;47.630;18.822;2023-12-14T02:23:48;91.80;;;21.38;;
53927;SDS011;39837;47.630;18.822;2023-12-14T02:26:32;150.23;;;23.48;;
53927;SDS011;39837;47.630;18.822;2023-12-14T02:29:16;186.90;;;23.33;;
53927;SDS011;39837;47.630;18.822;2023-12-14T02:32:00;185.27;;;23.67;;
53927;SDS011;39837;47.630;18.822;2023-12-14T02:34:44;277.90;;;26.27;;
53927;SDS011;39837;47.630;18.822;2023-12-14T02:37:28;197.45;;;23.85;;
53927;SDS011;39837;47.630;18.822;2023-12-14T02:40:12;149.63;;;23.08;;
53927;SDS011;39837;47.630;18.822;2023-12-14T02:42:56;192.60;;;24.52;;
53927;SDS011;39837;47.630;18.822;2023-12-14T02:45:40;284.55;;;28.95;;
53927;SDS011;39837;47.630;18.822;2023-12-14T02:48:24;169.23;;;23.80;;
53927;SDS011;39837;47.630;18.822;2023-12-14T02:51:11;165.43;;;24.25;;
53927;SDS011;39837;47.630;18.822;2023-12-14T02:53:57;127.93;;;25.10;;
53927;SDS011;39837;47.630;18.822;2023-12-14T02:56:41;228.93;;;30.38;;
53927;SDS011;39837;47.630;18.822;2023-12-14T02:59:25;219.48;;;27.83;;
53927;SDS011;39837;47.630;18.822;2023-12-14T03:02:09;252.63;;;28.65;;
53927;SDS011;39837;47.630;18.822;2023-12-14T03:04:54;259.63;;;29.33;;
53927;SDS011;39837;47.630;18.822;2023-12-14T03:07:38;326.85;;;30.23;;
53927;SDS011;39837;47.630;18.822;2023-12-14T03:10:22;213.90;;;25.77;;
53927;SDS011;39837;47.630;18.822;2023-12-14T03:13:06;156.55;;;24.27;;
53927;SDS011;39837;47.630;18.822;2023-12-14T03:15:50;224.30;;;25.55;;
53927;SDS011;39837;47.630;18.822;2023-12-14T03:18:35;150.90;;;23.63;;
53927;SDS011;39837;47.630;18.822;2023-12-14T03:21:19;295.45;;;28.45;;
53927;SDS011;39837;47.630;18.822;2023-12-14T03:24:03;386.88;;;29.17;;
53927;SDS011;39837;47.630;18.822;2023-12-14T03:26:47;254.63;;;26.83;;
53927;SDS011;39837;47.630;18.822;2023-12-14T03:29:31;199.68;;;25.00;;
53927;SDS011;39837;47.630;18.822;2023-12-14T03:32:15;273.90;;;26.92;;
53927;SDS011;39837;47.630;18.822;2023-12-14T03:34:59;293.63;;;29.10;;
53927;SDS011;39837;47.630;18.822;2023-12-14T03:37:43;331.23;;;29.08;;
53927;SDS011;39837;47.630;18.822;2023-12-14T03:40:27;364.08;;;31.00;;
53927;SDS011;39837;47.630;18.822;2023-12-14T03:43:11;476.17;;;41.20;;
53927;SDS011;39837;47.630;18.822;2023-12-14T03:45:55;364.40;;;35.47;;
53927;SDS011;39837;47.630;18.822;2023-12-14T03:48:39;409.23;;;36.00;;
53927;SDS011;39837;47.630;18.822;2023-12-14T03:51:23;416.55;;;34.80;;
53927;SDS011;39837;47.630;18.822;2023-12-14T03:54:07;416.45;;;31.30;;
53927;SDS011;39837;47.630;18.822;2023-12-14T03:56:51;361.60;;;32.90;;
53927;SDS011;39837;47.630;18.822;2023-12-14T03:59:38;413.35;;;35.97;;
53927;SDS011;39837;47.630;18.822;2023-12-14T04:02:22;374.95;;;33.63;;
53927;SDS011;39837;47.630;18.822;2023-12-14T04:05:06;440.13;;;36.60;;
53927;SDS011;39837;47.630;18.822;2023-12-14T04:07:52;298.42;;;30.42;;
53927;SDS011;39837;47.630;18.822;2023-12-14T04:10:36;450.98;;;37.47;;
53927;SDS011;39837;47.630;18.822;2023-12-14T04:13:19;472.15;;;37.95;;
53927;SDS011;39837;47.630;18.822;2023-12-14T04:16:04;253.77;;;30.63;;
53927;SDS011;39837;47.630;18.822;2023-12-14T04:18:48;391.33;;;34.90;;
53927;SDS011;39837;47.630;18.822;2023-12-14T04:21:33;472.05;;;38.45;;
53927;SDS011;39837;47.630;18.822;2023-12-14T04:24:17;336.48;;;33.97;;
53927;SDS011;39837;47.630;18.822;2023-12-14T04:27:01;358.80;;;34.72;;
53927;SDS011;39837;47.630;18.822;2023-12-14T04:29:45;208.25;;;28.30;;
53927;SDS011;39837;47.630;18.822;2023-12-14T04:32:29;202.48;;;27.15;;
53927;SDS011;39837;47.630;18.822;2023-12-14T04:35:13;197.43;;;25.65;;
53927;SDS011;39837;47.630;18.822;2023-12-14T04:37:57;414.25;;;40.38;;
53927;SDS011;39837;47.630;18.822;2023-12-14T04:40:41;338.92;;;31.40;;
53927;SDS011;39837;47.630;18.822;2023-12-14T04:43:24;353.02;;;31.20;;
53927;SDS011;39837;47.630;18.822;2023-12-14T04:46:08;235.13;;;27.95;;
53927;SDS011;39837;47.630;18.822;2023-12-14T04:48:52;161.68;;;29.17;;
53927;SDS011;39837;47.630;18.822;2023-12-14T04:51:36;302.60;;;32.63;;
53927;SDS011;39837;47.630;18.822;2023-12-14T04:54:21;334.42;;;33.08;;
53927;SDS011;39837;47.630;18.822;2023-12-14T04:57:05;250.82;;;30.45;;
53927;SDS011;39837;47.630;18.822;2023-12-14T04:59:48;308.13;;;32.17;;
53927;SDS011;39837;47.630;18.822;2023-12-14T05:02:32;286.10;;;31.20;;
53927;SDS011;39837;47.630;18.822;2023-12-14T05:05:17;256.65;;;30.27;;
53927;SDS011;39837;47.630;18.822;2023-12-14T05:08:00;329.88;;;32.38;;
53927;SDS011;39837;47.630;18.822;2023-12-14T05:10:44;376.75;;;33.78;;
53927;SDS011;39837;47.630;18.822;2023-12-14T05:13:29;170.15;;;28.58;;
53927;SDS011;39837;47.630;18.822;2023-12-14T05:16:14;313.75;;;33.63;;
53927;SDS011;39837;47.630;18.822;2023-12-14T05:18:58;218.00;;;29.13;;
53927;SDS011;39837;47.630;18.822;2023-12-14T05:21:42;182.98;;;29.08;;
53927;SDS011;39837;47.630;18.822;2023-12-14T05:24:26;130.70;;;29.70;;
53927;SDS011;39837;47.630;18.822;2023-12-14T05:27:10;167.05;;;31.42;;
53927;SDS011;39837;47.630;18.822;2023-12-14T05:29:54;185.20;;;27.40;;
53927;SDS011;39837;47.630;18.822;2023-12-14T05:32:38;149.70;;;28.65;;
53927;SDS011;39837;47.630;18.822;2023-12-14T05:35:22;55.58;;;29.00;;
53927;SDS011;39837;47.630;18.822;2023-12-14T05:38:06;161.88;;;30.88;;
53927;SDS011;39837;47.630;18.822;2023-12-14T05:40:50;135.05;;;30.10;;
53927;SDS011;39837;47.630;18.822;2023-12-14T05:43:34;93.35;;;27.63;;
53927;SDS011;39837;47.630;18.822;2023-12-14T05:46:21;228.32;;;33.75;;
53927;SDS011;39837;47.630;18.822;2023-12-14T05:49:06;225.95;;;33.08;;
53927;SDS011;39837;47.630;18.822;2023-12-14T05:51:50;126.60;;;30.70;;
53927;SDS011;39837;47.630;18.822;2023-12-14T05:54:35;241.23;;;32.83;;
53927;SDS011;39837;47.630;18.822;2023-12-14T06:00:04;173.27;;;28.50;;
53927;SDS011;39837;47.630;18.822;2023-12-14T06:02:51;127.22;;;28.85;;
53927;SDS011;39837;47.630;18.822;2023-12-14T06:05:35;96.85;;;28.83;;
53927;SDS011;39837;47.630;18.822;2023-12-14T06:08:19;71.68;;;33.13;;
53927;SDS011;39837;47.630;18.822;2023-12-14T06:11:03;71.57;;;32.80;;
53927;SDS011;39837;47.630;18.822;2023-12-14T06:13:49;71.57;;;32.20;;
53927;SDS011;39837;47.630;18.822;2023-12-14T06:16:33;72.20;;;34.72;;
53927;SDS011;39837;47.630;18.822;2023-12-14T06:19:17;78.13;;;36.35;;
53927;SDS011;39837;47.630;18.822;2023-12-14T06:22:01;82.60;;;35.28;;
53927;SDS011;39837;47.630;18.822;2023-12-14T06:24:45;63.72;;;32.70;;
53927;SDS011;39837;47.630;18.822;2023-12-14T06:27:30;96.38;;;36.58;;
53927;SDS011;39837;47.630;18.822;2023-12-14T06:30:14;86.05;;;38.25;;
53927;SDS011;39837;47.630;18.822;2023-12-14T06:32:58;75.38;;;38.97;;
53927;SDS011;39837;47.630;18.822;2023-12-14T06:35:42;103.07;;;45.80;;
53927;SDS011;39837;47.630;18.822;2023-12-14T06:38:27;108.28;;;40.50;;
53927;SDS011;39837;47.630;18.822;2023-12-14T06:41:21;111.80;;;50.65;;
53927;SDS011;39837;47.630;18.822;2023-12-14T06:44:06;91.88;;;45.00;;
53927;SDS011;39837;47.630;18.822;2023-12-14T06:46:52;93.55;;;42.55;;
53927;SDS011;39837;47.630;18.822;2023-12-14T06:49:36;77.97;;;39.53;;
53927;SDS011;39837;47.630;18.822;2023-12-14T06:52:20;81.45;;;42.15;;
53927;SDS011;39837;47.630;18.822;2023-12-14T06:55:04;103.90;;;39.88;;
53927;SDS011;39837;47.630;18.822;2023-12-14T06:57:50;104.05;;;38.88;;
53927;SDS011;39837;47.630;18.822;2023-12-14T07:00:34;69.63;;;32.42;;
53927;SDS011;39837;47.630;18.822;2023-12-14T07:03:18;68.97;;;32.60;;
53927;SDS011;39837;47.630;18.822;2023-12-14T07:06:03;80.15;;;34.90;;
53927;SDS011;39837;47.630;18.822;2023-12-14T07:08:47;60.22;;;32.47;;
53927;SDS011;39837;47.630;18.822;2023-12-14T07:11:31;72.57;;;34.63;;
53927;SDS011;39837;47.630;18.822;2023-12-14T07:14:15;61.75;;;34.80;;
53927;SDS011;39837;47.630;18.822;2023-12-14T07:16:59;69.07;;;38.00;;
53927;SDS011;39837;47.630;18.822;2023-12-14T07:19:43;74.68;;;36.40;;
53927;SDS011;39837;47.630;18.822;2023-12-14T07:22:27;59.90;;;34.08;;
53927;SDS011;39837;47.630;18.822;2023-12-14T07:25:12;66.05;;;36.78;;
53927;SDS011;39837;47.630;18.822;2023-12-14T07:27:56;59.78;;;33.25;;
53927;SDS011;39837;47.630;18.822;2023-12-14T07:30:40;61.45;;;31.92;;
53927;SDS011;39837;47.630;18.822;2023-12-14T07:33:24;57.75;;;34.33;;
53927;SDS011;39837;47.630;18.822;2023-12-14T07:36:08;57.55;;;34.67;;
53927;SDS011;39837;47.630;18.822;2023-12-14T07:38:52;55.55;;;30.17;;
53927;SDS011;39837;47.630;18.822;2023-12-14T07:41:37;56.15;;;31.20;;
53927;SDS011;39837;47.630;18.822;2023-12-14T07:44:21;62.45;;;32.05;;
53927;SDS011;39837;47.630;18.822;2023-12-14T07:47:05;55.05;;;31.08;;
53927;SDS011;39837;47.630;18.822;2023-12-14T07:49:49;54.67;;;31.42;;
53927;SDS011;39837;47.630;18.822;2023-12-14T07:52:33;57.08;;;30.20;;
53927;SDS011;39837;47.630;18.822;2023-12-14T07:55:19;53.08;;;30.45;;
53927;SDS011;39837;47.630;18.822;2023-12-14T07:58:04;53.22;;;28.98;;
53927;SDS011;39837;47.630;18.822;2023-12-14T08:00:47;57.03;;;30.38;;
53927;SDS011;39837;47.630;18.822;2023-12-14T08:03:32;53.53;;;31.20;;
53927;SDS011;39837;47.630;18.822;2023-12-14T08:06:16;57.45;;;30.83;;
53927;SDS011;39837;47.630;18.822;2023-12-14T08:09:01;55.95;;;29.85;;
53927;SDS011;39837;47.630;18.822;2023-12-14T08:11:47;61.33;;;32.65;;
53927;SDS011;39837;47.630;18.822;2023-12-14T08:14:32;57.67;;;32.72;;
53927;SDS011;39837;47.630;18.822;2023-12-14T08:17:17;53.47;;;30.48;;
53927;SDS011;39837;47.630;18.822;2023-12-14T08:20:02;58.92;;;31.98;;
53927;SDS011;39837;47.630;18.822;2023-12-14T08:22:48;57.45;;;33.45;;
53927;SDS011;39837;47.630;18.822;2023-12-14T08:25:32;55.53;;;32.92;;
53927;SDS011;39837;47.630;18.822;2023-12-14T08:28:16;51.63;;;31.33;;
53927;SDS011;39837;47.630;18.822;2023-12-14T08:31:01;54.28;;;33.83;;
53927;SDS011;39837;47.630;18.822;2023-12-14T08:33:46;65.22;;;34.08;;
53927;SDS011;39837;47.630;18.822;2023-12-14T08:36:30;51.33;;;31.40;;
53927;SDS011;39837;47.630;18.822;2023-12-14T08:39:15;52.42;;;30.15;;
53927;SDS011;39837;47.630;18.822;2023-12-14T08:41:59;55.95;;;33.20;;
53927;SDS011;39837;47.630;18.822;2023-12-14T08:44:44;47.17;;;30.63;;
53927;SDS011;39837;47.630;18.822;2023-12-14T08:47:27;49.05;;;32.08;;
53927;SDS011;39837;47.630;18.822;2023-12-14T08:50:11;53.65;;;29.80;;
53927;SDS011;39837;47.630;18.822;2023-12-14T08:52:56;49.20;;;29.88;;
53927;SDS011;39837;47.630;18.822;2023-12-14T08:55:42;50.13;;;32.65;;
53927;SDS011;39837;47.630;18.822;2023-12-14T08:58:26;48.17;;;29.77;;
53927;SDS011;39837;47.630;18.822;2023-12-14T09:01:10;46.22;;;29.13;;
53927;SDS011;39837;47.630;18.822;2023-12-14T09:03:54;55.40;;;35.67;;
53927;SDS011;39837;47.630;18.822;2023-12-14T09:06:38;55.40;;;34.88;;
53927;SDS011;39837;47.630;18.822;2023-12-14T09:09:25;49.35;;;30.83;;
53927;SDS011;39837;47.630;18.822;2023-12-14T09:12:09;46.80;;;30.13;;
53927;SDS011;39837;47.630;18.822;2023-12-14T09:14:53;50.65;;;29.92;;
53927;SDS011;39837;47.630;18.822;2023-12-14T09:17:37;54.72;;;31.00;;
53927;SDS011;39837;47.630;18.822;2023-12-14T09:20:21;46.75;;;30.33;;
53927;SDS011;39837;47.630;18.822;2023-12-14T09:23:05;48.50;;;29.13;;
53927;SDS011;39837;47.630;18.822;2023-12-14T09:25:49;39.95;;;28.05;;
53927;SDS011;39837;47.630;18.822;2023-12-14T09:28:33;43.53;;;27.42;;
53927;SDS011;39837;47.630;18.822;2023-12-14T09:31:17;44.88;;;28.48;;
53927;SDS011;39837;47.630;18.822;2023-12-14T09:34:02;47.80;;;30.60;;
53927;SDS011;39837;47.630;18.822;2023-12-14T09:36:47;58.63;;;32.72;;
53927;SDS011;39837;47.630;18.822;2023-12-14T09:39:31;43.15;;;29.13;;
53927;SDS011;39837;47.630;18.822;2023-12-14T09:42:16;44.50;;;27.23;;
53927;SDS011;39837;47.630;18.822;2023-12-14T09:45:03;51.92;;;29.27;;
53927;SDS011;39837;47.630;18.822;2023-12-14T09:47:48;43.47;;;28.58;;
53927;SDS011;39837;47.630;18.822;2023-12-14T09:50:32;42.85;;;27.42;;
53927;SDS011;39837;47.630;18.822;2023-12-14T09:53:18;54.03;;;32.20;;
53927;SDS011;39837;47.630;18.822;2023-12-14T09:56:02;51.17;;;31.38;;
53927;SDS011;39837;47.630;18.822;2023-12-14T09:58:47;55.25;;;34.03;;
53927;SDS011;39837;47.630;18.822;2023-12-14T10:01:31;74.03;;;47.67;;
53927;SDS011;39837;47.630;18.822;2023-12-14T10:04:15;50.08;;;32.22;;
53927;SDS011;39837;47.630;18.822;2023-12-14T10:07:00;46.45;;;29.95;;
53927;SDS011;39837;47.630;18.822;2023-12-14T10:09:50;48.42;;;29.02;;
53927;SDS011;39837;47.630;18.822;2023-12-14T10:12:34;46.30;;;29.52;;
53927;SDS011;39837;47.630;18.822;2023-12-14T10:15:44;48.13;;;29.00;;
53927;SDS011;39837;47.630;18.822;2023-12-14T10:18:31;40.20;;;27.33;;
53927;SDS011;39837;47.630;18.822;2023-12-14T10:21:17;43.83;;;29.48;;
53927;SDS011;39837;47.630;18.822;2023-12-14T10:24:01;47.78;;;29.02;;
53927;SDS011;39837;47.630;18.822;2023-12-14T10:26:45;46.10;;;28.50;;
53927;SDS011;39837;47.630;18.822;2023-12-14T10:29:32;43.13;;;26.15;;
53927;SDS011;39837;47.630;18.822;2023-12-14T10:32:17;46.85;;;29.33;;
53927;SDS011;39837;47.630;18.822;2023-12-14T10:35:02;48.25;;;30.85;;
53927;SDS011;39837;47.630;18.822;2023-12-14T10:37:46;67.35;;;39.75;;
53927;SDS011;39837;47.630;18.822;2023-12-14T10:40:33;95.60;;;53.72;;
53927;SDS011;39837;47.630;18.822;2023-12-14T10:43:18;80.50;;;47.88;;
53927;SDS011;39837;47.630;18.822;2023-12-14T10:46:04;84.40;;;42.22;;
53927;SDS011;39837;47.630;18.822;2023-12-14T10:48:51;53.65;;;32.05;;
53927;SDS011;39837;47.630;18.822;2023-12-14T10:51:35;47.03;;;29.70;;
53927;SDS011;39837;47.630;18.822;2023-12-14T10:54:21;50.00;;;30.67;;
53927;SDS011;39837;47.630;18.822;2023-12-14T10:57:07;49.28;;;31.30;;
53927;SDS011;39837;47.630;18.822;2023-12-14T10:59:58;41.30;;;27.55;;
53927;SDS011;39837;47.630;18.822;2023-12-14T11:02:47;45.42;;;27.15;;
53927;SDS011;39837;47.630;18.822;2023-12-14T11:05:33;54.55;;;34.72;;
53927;SDS011;39837;47.630;18.822;2023-12-14T11:08:17;58.08;;;32.65;;
53927;SDS011;39837;47.630;18.822;2023-12-14T11:11:03;239.60;;;141.82;;
53927;SDS011;39837;47.630;18.822;2023-12-14T11:13:54;112.80;;;64.70;;
53927;SDS011;39837;47.630;18.822;2023-12-14T11:16:39;60.45;;;32.97;;
53927;SDS011;39837;47.630;18.822;2023-12-14T11:19:30;41.67;;;27.95;;
53927;SDS011;39837;47.630;18.822;2023-12-14T11:22:23;47.33;;;30.63;;
53927;SDS011;39837;47.630;18.822;2023-12-14T11:25:07;36.90;;;23.73;;
53927;SDS011;39837;47.630;18.822;2023-12-14T11:27:51;37.25;;;26.67;;
53927;SDS011;39837;47.630;18.822;2023-12-14T11:30:36;55.78;;;25.27;;
53927;SDS011;39837;47.630;18.822;2023-12-14T11:33:21;40.70;;;25.42;;
53927;SDS011;39837;47.630;18.822;2023-12-14T11:36:05;41.42;;;25.85;;
53927;SDS011;39837;47.630;18.822;2023-12-14T11:38:50;35.75;;;23.45;;
53927;SDS011;39837;47.630;18.822;2023-12-14T11:41:34;35.92;;;24.58;;
53927;SDS011;39837;47.630;18.822;2023-12-14T11:44:22;56.08;;;32.72;;
53927;SDS011;39837;47.630;18.822;2023-12-14T11:47:06;29.70;;;20.95;;
53927;SDS011;39837;47.630;18.822;2023-12-14T11:52:36;35.25;;;23.50;;
53927;SDS011;39837;47.630;18.822;2023-12-14T11:55:21;31.77;;;21.63;;
53927;SDS011;39837;47.630;18.822;2023-12-14T11:58:05;29.50;;;21.88;;
53927;SDS011;39837;47.630;18.822;2023-12-14T12:00:50;49.88;;;34.45;;
53927;SDS011;39837;47.630;18.822;2023-12-14T12:03:33;41.10;;;24.35;;
53927;SDS011;39837;47.630;18.822;2023-12-14T12:06:22;37.85;;;24.73;;
53927;SDS011;39837;47.630;18.822;2023-12-14T12:09:18;37.15;;;25.38;;
53927;SDS011;39837;47.630;18.822;2023-12-14T12:12:16;31.60;;;22.23;;
53927;SDS011;39837;47.630;18.822;2023-12-14T12:15:01;39.67;;;26.70;;
53927;SDS011;39837;47.630;18.822;2023-12-14T12:17:45;32.90;;;22.65;;
53927;SDS011;39837;47.630;18.822;2023-12-14T12:20:29;31.25;;;21.35;;
53927;SDS011;39837;47.630;18.822;2023-12-14T12:23:13;33.35;;;20.65;;
53927;SDS011;39837;47.630;18.822;2023-12-14T12:25:57;30.27;;;20.98;;
53927;SDS011;39837;47.630;18.822;2023-12-14T12:28:41;35.67;;;23.48;;
53927;SDS011;39837;47.630;18.822;2023-12-14T12:31:25;34.45;;;21.63;;
53927;SDS011;39837;47.630;18.822;2023-12-14T12:34:09;35.33;;;23.30;;
53927;SDS011;39837;47.630;18.822;2023-12-14T12:36:54;38.20;;;22.90;;
53927;SDS011;39837;47.630;18.822;2023-12-14T12:39:39;37.58;;;24.60;;
53927;SDS011;39837;47.630;18.822;2023-12-14T12:42:22;32.22;;;21.80;;
53927;SDS011;39837;47.630;18.822;2023-12-14T12:45:06;32.50;;;20.85;;
53927;SDS011;39837;47.630;18.822;2023-12-14T12:47:51;37.38;;;24.20;;
53927;SDS011;39837;47.630;18.822;2023-12-14T12:50:35;29.25;;;19.67;;
53927;SDS011;39837;47.630;18.822;2023-12-14T12:53:18;31.90;;;23.52;;
53927;SDS011;39837;47.630;18.822;2023-12-14T12:56:02;33.13;;;22.30;;
53927;SDS011;39837;47.630;18.822;2023-12-14T12:58:47;33.10;;;22.48;;
53927;SDS011;39837;47.630;18.822;2023-12-14T13:01:33;33.50;;;22.08;;
53927;SDS011;39837;47.630;18.822;2023-12-14T13:04:17;31.95;;;21.88;;
53927;SDS011;39837;47.630;18.822;2023-12-14T13:07:04;33.45;;;21.30;;
53927;SDS011;39837;47.630;18.822;2023-12-14T13:09:48;31.77;;;21.80;;
53927;SDS011;39837;47.630;18.822;2023-12-14T13:12:32;31.63;;;22.52;;
53927;SDS011;39837;47.630;18.822;2023-12-14T13:15:17;32.20;;;19.38;;
53927;SDS011;39837;47.630;18.822;2023-12-14T13:18:02;36.63;;;21.63;;
53927;SDS011;39837;47.630;18.822;2023-12-14T13:20:46;34.65;;;23.75;;
53927;SDS011;39837;47.630;18.822;2023-12-14T13:23:30;31.98;;;23.20;;
53927;SDS011;39837;47.630;18.822;2023-12-14T13:26:14;33.60;;;22.98;;
53927;SDS011;39837;47.630;18.822;2023-12-14T13:28:58;35.05;;;23.05;;
53927;SDS011;39837;47.630;18.822;2023-12-14T13:31:42;36.28;;;22.50;;
53927;SDS011;39837;47.630;18.822;2023-12-14T13:34:26;32.00;;;21.98;;
53927;SDS011;39837;47.630;18.822;2023-12-14T13:37:11;31.17;;;21.27;;
53927;SDS011;39837;47.630;18.822;2023-12-14T13:39:56;32.55;;;21.92;;
53927;SDS011;39837;47.630;18.822;2023-12-14T13:42:41;32.50;;;20.73;;
53927;SDS011;39837;47.630;18.822;2023-12-14T13:45:28;30.00;;;21.08;;
53927;SDS011;39837;47.630;18.822;2023-12-14T13:48:14;30.95;;;20.83;;
53927;SDS011;39837;47.630;18.822;2023-12-14T13:50:58;32.38;;;21.52;;
53927;SDS011;39837;47.630;18.822;2023-12-14T13:53:41;33.83;;;20.05;;
53927;SDS011;39837;47.630;18.822;2023-12-14T13:56:27;26.05;;;17.45;;
53927;SDS011;39837;47.630;18.822;2023-12-14T13:59:11;22.92;;;16.80;;
53927;SDS011;39837;47.630;18.822;2023-12-14T14:01:55;27.40;;;18.52;;
53927;SDS011;39837;47.630;18.822;2023-12-14T14:04:39;25.27;;;18.08;;
53927;SDS011;39837;47.630;18.822;2023-12-14T14:07:24;28.35;;;17.92;;
53927;SDS011;39837;47.630;18.822;2023-12-14T14:10:08;25.52;;;16.02;;
53927;SDS011;39837;47.630;18.822;2023-12-14T14:12:52;28.17;;;19.52;;
53927;SDS011;39837;47.630;18.822;2023-12-14T14:15:36;25.75;;;17.65;;
53927;SDS011;39837;47.630;18.822;2023-12-14T14:18:20;37.63;;;21.20;;
53927;SDS011;39837;47.630;18.822;2023-12-14T14:21:05;29.13;;;20.23;;
53927;SDS011;39837;47.630;18.822;2023-12-14T14:23:51;26.45;;;19.00;;
53927;SDS011;39837;47.630;18.822;2023-12-14T14:26:35;26.35;;;19.42;;
53927;SDS011;39837;47.630;18.822;2023-12-14T14:29:19;30.27;;;20.88;;
53927;SDS011;39837;47.630;18.822;2023-12-14T14:32:03;31.60;;;21.73;;
53927;SDS011;39837;47.630;18.822;2023-12-14T14:34:48;25.98;;;18.98;;
53927;SDS011;39837;47.630;18.822;2023-12-14T14:37:32;33.20;;;21.70;;
53927;SDS011;39837;47.630;18.822;2023-12-14T14:40:16;27.92;;;19.92;;
53927;SDS011;39837;47.630;18.822;2023-12-14T14:43:01;31.63;;;21.58;;
53927;SDS011;39837;47.630;18.822;2023-12-14T14:45:44;32.83;;;20.52;;
53927;SDS011;39837;47.630;18.822;2023-12-14T14:48:28;37.85;;;25.33;;
53927;SDS011;39837;47.630;18.822;2023-12-14T14:51:12;33.75;;;21.42;;
53927;SDS011;39837;47.630;18.822;2023-12-14T14:53:56;34.53;;;23.20;;
53927;SDS011;39837;47.630;18.822;2023-12-14T14:56:40;38.03;;;24.67;;
53927;SDS011;39837;47.630;18.822;2023-12-14T14:59:24;34.35;;;24.00;;
53927;SDS011;39837;47.630;18.822;2023-12-14T15:02:08;37.30;;;24.42;;
53927;SDS011;39837;47.630;18.822;2023-12-14T15:04:52;32.92;;;24.08;;
53927;SDS011;39837;47.630;18.822;2023-12-14T15:07:36;35.70;;;23.13;;
53927;SDS011;39837;47.630;18.822;2023-12-14T15:10:20;40.70;;;23.65;;
53927;SDS011;39837;47.630;18.822;2023-12-14T15:13:04;36.47;;;24.92;;
53927;SDS011;39837;47.630;18.822;2023-12-14T15:15:51;37.13;;;23.95;;
53927;SDS011;39837;47.630;18.822;2023-12-14T15:18:35;40.67;;;27.20;;
53927;SDS011;39837;47.630;18.822;2023-12-14T15:21:24;35.40;;;23.95;;
53927;SDS011;39837;47.630;18.822;2023-12-14T15:24:08;37.95;;;23.85;;
53927;SDS011;39837;47.630;18.822;2023-12-14T15:26:53;32.97;;;22.80;;
53927;SDS011;39837;47.630;18.822;2023-12-14T15:29:37;37.22;;;24.65;;
53927;SDS011;39837;47.630;18.822;2023-12-14T15:32:21;37.50;;;25.20;;
53927;SDS011;39837;47.630;18.822;2023-12-14T15:35:05;34.75;;;25.75;;
53927;SDS011;39837;47.630;18.822;2023-12-14T15:37:49;49.03;;;33.28;;
53927;SDS011;39837;47.630;18.822;2023-12-14T15:40:33;40.40;;;28.30;;
53927;SDS011;39837;47.630;18.822;2023-12-14T15:43:19;43.60;;;28.88;;
53927;SDS011;39837;47.630;18.822;2023-12-14T15:46:03;41.80;;;26.88;;
53927;SDS011;39837;47.630;18.822;2023-12-14T15:48:47;43.92;;;26.77;;